sensor_id;sensor_type;location;lat;lon;timestamp;P1;durP1;ratioP1;P2;durP2;ratioP2
69799;SDS011;67217;51.008;4.644;2023-03-01T00:01:17;18.52;;;13.08;;
69799;SDS011;67217;51.008;4.644;2023-03-01T00:03:47;24.40;;;13.03;;
69799;SDS011;67217;51.008;4.644;2023-03-01T00:06:15;20.02;;;12.70;;
69799;SDS011;67217;51.008;4.644;2023-03-01T00:08:43;19.73;;;12.60;;
69799;SDS011;67217;51.008;4.644;2023-03-01T00:11:19;18.27;;;12.50;;
69799;SDS011;67217;51.008;4.644;2023-03-01T00:13:45;19.55;;;13.20;;
69799;SDS011;67217;51.008;4.644;2023-03-01T00:16:21;16.95;;;12.58;;
69799;SDS011;67217;51.008;4.644;2023-03-01T00:18:47;20.27;;;13.22;;
69799;SDS011;67217;51.008;4.644;2023-03-01T00:21:16;19.52;;;13.03;;
69799;SDS011;67217;51.008;4.644;2023-03-01T00:23:46;16.90;;;12.85;;
69799;SDS011;67217;51.008;4.644;2023-03-01T00:26:15;17.82;;;12.58;;
69799;SDS011;67217;51.008;4.644;2023-03-01T00:28:44;18.52;;;13.58;;
69799;SDS011;67217;51.008;4.644;2023-03-01T00:31:16;18.37;;;13.00;;
69799;SDS011;67217;51.008;4.644;2023-03-01T00:33:45;21.65;;;14.03;;
69799;SDS011;67217;51.008;4.644;2023-03-01T00:36:14;21.12;;;13.55;;
69799;SDS011;67217;51.008;4.644;2023-03-01T00:38:43;18.75;;;13.43;;
69799;SDS011;67217;51.008;4.644;2023-03-01T00:41:13;19.23;;;13.55;;
69799;SDS011;67217;51.008;4.644;2023-03-01T00:43:43;20.60;;;13.98;;
69799;SDS011;67217;51.008;4.644;2023-03-01T00:46:12;18.95;;;13.50;;
69799;SDS011;67217;51.008;4.644;2023-03-01T00:48:42;20.90;;;13.93;;
69799;SDS011;67217;51.008;4.644;2023-03-01T00:51:11;22.20;;;13.85;;
69799;SDS011;67217;51.008;4.644;2023-03-01T00:53:40;21.42;;;13.75;;
69799;SDS011;67217;51.008;4.644;2023-03-01T00:56:09;21.35;;;13.85;;
69799;SDS011;67217;51.008;4.644;2023-03-01T00:58:38;20.75;;;13.55;;
69799;SDS011;67217;51.008;4.644;2023-03-01T01:01:07;16.67;;;12.35;;
69799;SDS011;67217;51.008;4.644;2023-03-01T01:03:38;18.15;;;13.00;;
69799;SDS011;67217;51.008;4.644;2023-03-01T01:06:05;19.52;;;12.03;;
69799;SDS011;67217;51.008;4.644;2023-03-01T01:08:35;19.77;;;12.07;;
69799;SDS011;67217;51.008;4.644;2023-03-01T01:11:03;20.62;;;11.85;;
69799;SDS011;67217;51.008;4.644;2023-03-01T01:13:31;19.65;;;12.10;;
69799;SDS011;67217;51.008;4.644;2023-03-01T01:16:01;21.42;;;12.23;;
69799;SDS011;67217;51.008;4.644;2023-03-01T01:18:29;21.07;;;12.30;;
69799;SDS011;67217;51.008;4.644;2023-03-01T01:20:58;17.30;;;12.25;;
69799;SDS011;67217;51.008;4.644;2023-03-01T01:23:33;18.82;;;12.07;;
69799;SDS011;67217;51.008;4.644;2023-03-01T01:26:05;18.90;;;11.68;;
69799;SDS011;67217;51.008;4.644;2023-03-01T01:28:37;16.32;;;11.15;;
69799;SDS011;67217;51.008;4.644;2023-03-01T01:31:05;18.77;;;11.80;;
69799;SDS011;67217;51.008;4.644;2023-03-01T01:33:33;17.15;;;11.73;;
69799;SDS011;67217;51.008;4.644;2023-03-01T01:36:03;15.38;;;11.15;;
69799;SDS011;67217;51.008;4.644;2023-03-01T01:38:32;15.80;;;11.55;;
69799;SDS011;67217;51.008;4.644;2023-03-01T01:41:00;17.55;;;11.63;;
69799;SDS011;67217;51.008;4.644;2023-03-01T01:43:29;20.30;;;11.57;;
69799;SDS011;67217;51.008;4.644;2023-03-01T01:46:01;22.22;;;11.53;;
69799;SDS011;67217;51.008;4.644;2023-03-01T01:48:43;22.42;;;12.00;;
69799;SDS011;67217;51.008;4.644;2023-03-01T01:51:14;18.82;;;11.12;;
69799;SDS011;67217;51.008;4.644;2023-03-01T01:53:40;17.90;;;11.85;;
69799;SDS011;67217;51.008;4.644;2023-03-01T01:56:10;17.05;;;11.25;;
69799;SDS011;67217;51.008;4.644;2023-03-01T01:58:40;17.37;;;11.93;;
69799;SDS011;67217;51.008;4.644;2023-03-01T02:01:10;16.82;;;11.30;;
69799;SDS011;67217;51.008;4.644;2023-03-01T02:03:59;16.20;;;10.72;;
69799;SDS011;67217;51.008;4.644;2023-03-01T02:06:28;16.87;;;11.20;;
69799;SDS011;67217;51.008;4.644;2023-03-01T02:08:59;15.63;;;10.72;;
69799;SDS011;67217;51.008;4.644;2023-03-01T02:11:29;16.50;;;11.90;;
69799;SDS011;67217;51.008;4.644;2023-03-01T02:13:58;17.95;;;11.88;;
69799;SDS011;67217;51.008;4.644;2023-03-01T02:16:26;17.80;;;12.25;;
69799;SDS011;67217;51.008;4.644;2023-03-01T02:18:54;18.00;;;12.53;;
69799;SDS011;67217;51.008;4.644;2023-03-01T02:23:58;20.75;;;13.32;;
69799;SDS011;67217;51.008;4.644;2023-03-01T02:26:29;18.27;;;12.53;;
69799;SDS011;67217;51.008;4.644;2023-03-01T02:28:58;18.40;;;12.07;;
69799;SDS011;67217;51.008;4.644;2023-03-01T02:31:26;16.30;;;12.07;;
69799;SDS011;67217;51.008;4.644;2023-03-01T02:34:11;17.05;;;12.30;;
69799;SDS011;67217;51.008;4.644;2023-03-01T02:36:47;18.85;;;12.68;;
69799;SDS011;67217;51.008;4.644;2023-03-01T02:39:26;20.62;;;12.45;;
69799;SDS011;67217;51.008;4.644;2023-03-01T02:42:06;17.73;;;12.25;;
69799;SDS011;67217;51.008;4.644;2023-03-01T02:44:36;20.05;;;12.63;;
69799;SDS011;67217;51.008;4.644;2023-03-01T02:47:04;17.87;;;12.43;;
69799;SDS011;67217;51.008;4.644;2023-03-01T02:49:33;17.85;;;11.97;;
69799;SDS011;67217;51.008;4.644;2023-03-01T02:57:34;18.10;;;12.43;;
69799;SDS011;67217;51.008;4.644;2023-03-01T03:00:06;17.90;;;12.58;;
69799;SDS011;67217;51.008;4.644;2023-03-01T03:02:39;16.50;;;11.80;;
69799;SDS011;67217;51.008;4.644;2023-03-01T03:05:18;17.98;;;12.63;;
69799;SDS011;67217;51.008;4.644;2023-03-01T03:07:44;17.25;;;12.05;;
69799;SDS011;67217;51.008;4.644;2023-03-01T03:10:18;23.00;;;13.85;;
69799;SDS011;67217;51.008;4.644;2023-03-01T03:12:55;19.23;;;12.73;;
69799;SDS011;67217;51.008;4.644;2023-03-01T03:15:21;21.05;;;12.68;;
69799;SDS011;67217;51.008;4.644;2023-03-01T03:17:50;19.50;;;12.97;;
69799;SDS011;67217;51.008;4.644;2023-03-01T03:20:20;19.52;;;13.35;;
69799;SDS011;67217;51.008;4.644;2023-03-01T03:22:51;19.52;;;12.35;;
69799;SDS011;67217;51.008;4.644;2023-03-01T03:25:20;17.82;;;12.80;;
69799;SDS011;67217;51.008;4.644;2023-03-01T03:27:49;19.33;;;12.93;;
69799;SDS011;67217;51.008;4.644;2023-03-01T03:30:19;18.32;;;13.05;;
69799;SDS011;67217;51.008;4.644;2023-03-01T03:32:47;21.90;;;13.72;;
69799;SDS011;67217;51.008;4.644;2023-03-01T03:35:19;21.37;;;12.58;;
69799;SDS011;67217;51.008;4.644;2023-03-01T03:37:52;21.60;;;12.82;;
69799;SDS011;67217;51.008;4.644;2023-03-01T03:40:33;21.90;;;12.98;;
69799;SDS011;67217;51.008;4.644;2023-03-01T03:43:07;20.30;;;13.48;;
69799;SDS011;67217;51.008;4.644;2023-03-01T03:45:36;22.07;;;12.80;;
69799;SDS011;67217;51.008;4.644;2023-03-01T03:48:05;19.85;;;12.93;;
69799;SDS011;67217;51.008;4.644;2023-03-01T03:50:35;20.88;;;12.85;;
69799;SDS011;67217;51.008;4.644;2023-03-01T03:53:06;20.27;;;13.05;;
69799;SDS011;67217;51.008;4.644;2023-03-01T03:55:35;18.95;;;13.00;;
69799;SDS011;67217;51.008;4.644;2023-03-01T04:00:34;21.25;;;12.03;;
69799;SDS011;67217;51.008;4.644;2023-03-01T04:03:04;22.52;;;13.72;;
69799;SDS011;67217;51.008;4.644;2023-03-01T04:05:32;20.40;;;12.60;;
69799;SDS011;67217;51.008;4.644;2023-03-01T04:08:00;19.40;;;13.43;;
69799;SDS011;67217;51.008;4.644;2023-03-01T04:10:35;20.10;;;12.03;;
69799;SDS011;67217;51.008;4.644;2023-03-01T04:13:10;19.17;;;13.38;;
69799;SDS011;67217;51.008;4.644;2023-03-01T04:15:35;19.60;;;12.47;;
69799;SDS011;67217;51.008;4.644;2023-03-01T04:18:03;18.15;;;12.25;;
69799;SDS011;67217;51.008;4.644;2023-03-01T04:20:33;18.85;;;12.68;;
69799;SDS011;67217;51.008;4.644;2023-03-01T04:28:12;18.95;;;12.37;;
69799;SDS011;67217;51.008;4.644;2023-03-01T04:30:40;19.60;;;12.03;;
69799;SDS011;67217;51.008;4.644;2023-03-01T04:33:08;22.45;;;12.45;;
69799;SDS011;67217;51.008;4.644;2023-03-01T04:35:36;18.57;;;12.43;;
69799;SDS011;67217;51.008;4.644;2023-03-01T04:38:06;21.00;;;13.45;;
69799;SDS011;67217;51.008;4.644;2023-03-01T04:40:34;20.92;;;12.75;;
69799;SDS011;67217;51.008;4.644;2023-03-01T04:43:02;19.57;;;12.60;;
69799;SDS011;67217;51.008;4.644;2023-03-01T04:45:31;21.33;;;12.45;;
69799;SDS011;67217;51.008;4.644;2023-03-01T04:48:00;21.55;;;12.93;;
69799;SDS011;67217;51.008;4.644;2023-03-01T04:50:28;17.90;;;12.75;;
69799;SDS011;67217;51.008;4.644;2023-03-01T04:52:56;19.25;;;12.45;;
69799;SDS011;67217;51.008;4.644;2023-03-01T04:55:30;21.07;;;12.95;;
69799;SDS011;67217;51.008;4.644;2023-03-01T04:57:55;19.42;;;12.95;;
69799;SDS011;67217;51.008;4.644;2023-03-01T05:00:23;18.52;;;12.28;;
69799;SDS011;67217;51.008;4.644;2023-03-01T05:02:52;21.52;;;12.40;;
69799;SDS011;67217;51.008;4.644;2023-03-01T05:08:10;17.35;;;11.60;;
69799;SDS011;67217;51.008;4.644;2023-03-01T05:10:40;20.17;;;12.88;;
69799;SDS011;67217;51.008;4.644;2023-03-01T05:13:07;21.95;;;13.20;;
69799;SDS011;67217;51.008;4.644;2023-03-01T05:15:35;21.77;;;12.75;;
69799;SDS011;67217;51.008;4.644;2023-03-01T05:18:03;21.82;;;13.32;;
69799;SDS011;67217;51.008;4.644;2023-03-01T05:20:33;18.95;;;12.50;;
69799;SDS011;67217;51.008;4.644;2023-03-01T05:23:02;18.23;;;12.70;;
69799;SDS011;67217;51.008;4.644;2023-03-01T05:25:31;21.23;;;12.78;;
69799;SDS011;67217;51.008;4.644;2023-03-01T05:28:01;21.87;;;13.75;;
69799;SDS011;67217;51.008;4.644;2023-03-01T05:30:31;20.43;;;12.82;;
69799;SDS011;67217;51.008;4.644;2023-03-01T05:32:59;26.57;;;12.73;;
69799;SDS011;67217;51.008;4.644;2023-03-01T05:35:27;18.17;;;12.53;;
69799;SDS011;67217;51.008;4.644;2023-03-01T05:37:55;17.17;;;12.23;;
69799;SDS011;67217;51.008;4.644;2023-03-01T05:40:23;18.37;;;12.73;;
69799;SDS011;67217;51.008;4.644;2023-03-01T05:42:55;22.45;;;12.60;;
69799;SDS011;67217;51.008;4.644;2023-03-01T05:45:23;19.42;;;12.35;;
69799;SDS011;67217;51.008;4.644;2023-03-01T05:47:53;22.75;;;13.00;;
69799;SDS011;67217;51.008;4.644;2023-03-01T05:50:22;19.97;;;12.87;;
69799;SDS011;67217;51.008;4.644;2023-03-01T05:52:58;19.98;;;12.35;;
69799;SDS011;67217;51.008;4.644;2023-03-01T05:55:28;16.80;;;12.33;;
69799;SDS011;67217;51.008;4.644;2023-03-01T05:58:00;22.82;;;12.88;;
69799;SDS011;67217;51.008;4.644;2023-03-01T06:00:26;21.12;;;13.25;;
69799;SDS011;67217;51.008;4.644;2023-03-01T06:02:55;18.13;;;12.80;;
69799;SDS011;67217;51.008;4.644;2023-03-01T06:05:44;20.85;;;13.15;;
69799;SDS011;67217;51.008;4.644;2023-03-01T06:08:12;21.27;;;13.00;;
69799;SDS011;67217;51.008;4.644;2023-03-01T06:10:40;18.60;;;12.73;;
69799;SDS011;67217;51.008;4.644;2023-03-01T06:13:08;21.82;;;12.88;;
69799;SDS011;67217;51.008;4.644;2023-03-01T06:15:37;21.60;;;13.50;;
69799;SDS011;67217;51.008;4.644;2023-03-01T06:18:04;21.65;;;14.07;;
69799;SDS011;67217;51.008;4.644;2023-03-01T06:20:32;19.75;;;13.20;;
69799;SDS011;67217;51.008;4.644;2023-03-01T06:23:01;20.60;;;12.90;;
69799;SDS011;67217;51.008;4.644;2023-03-01T06:25:29;21.75;;;14.28;;
69799;SDS011;67217;51.008;4.644;2023-03-01T06:27:59;21.70;;;13.65;;
69799;SDS011;67217;51.008;4.644;2023-03-01T06:30:27;23.32;;;12.90;;
69799;SDS011;67217;51.008;4.644;2023-03-01T06:32:55;20.65;;;14.10;;
69799;SDS011;67217;51.008;4.644;2023-03-01T06:35:25;19.70;;;13.10;;
69799;SDS011;67217;51.008;4.644;2023-03-01T06:37:54;25.90;;;14.50;;
69799;SDS011;67217;51.008;4.644;2023-03-01T06:40:23;20.85;;;13.88;;
69799;SDS011;67217;51.008;4.644;2023-03-01T06:42:51;24.92;;;13.65;;
69799;SDS011;67217;51.008;4.644;2023-03-01T06:45:19;26.45;;;14.10;;
69799;SDS011;67217;51.008;4.644;2023-03-01T06:47:47;22.48;;;13.15;;
69799;SDS011;67217;51.008;4.644;2023-03-01T06:50:15;22.55;;;14.18;;
69799;SDS011;67217;51.008;4.644;2023-03-01T06:52:44;17.52;;;11.20;;
69799;SDS011;67217;51.008;4.644;2023-03-01T06:55:13;17.97;;;10.60;;
69799;SDS011;67217;51.008;4.644;2023-03-01T06:57:41;20.30;;;13.43;;
69799;SDS011;67217;51.008;4.644;2023-03-01T07:00:09;23.35;;;13.13;;
69799;SDS011;67217;51.008;4.644;2023-03-01T07:02:38;28.87;;;14.33;;
69799;SDS011;67217;51.008;4.644;2023-03-01T07:05:06;23.38;;;14.20;;
69799;SDS011;67217;51.008;4.644;2023-03-01T07:07:34;25.65;;;14.20;;
69799;SDS011;67217;51.008;4.644;2023-03-01T07:10:02;22.35;;;14.35;;
69799;SDS011;67217;51.008;4.644;2023-03-01T07:12:30;21.68;;;13.93;;
69799;SDS011;67217;51.008;4.644;2023-03-01T07:14:58;27.55;;;14.53;;
69799;SDS011;67217;51.008;4.644;2023-03-01T07:17:26;24.72;;;14.35;;
69799;SDS011;67217;51.008;4.644;2023-03-01T07:19:53;23.92;;;15.00;;
69799;SDS011;67217;51.008;4.644;2023-03-01T07:22:21;25.02;;;15.20;;
69799;SDS011;67217;51.008;4.644;2023-03-01T07:24:49;24.72;;;14.90;;
69799;SDS011;67217;51.008;4.644;2023-03-01T07:27:17;27.98;;;15.70;;
69799;SDS011;67217;51.008;4.644;2023-03-01T07:29:45;27.10;;;15.38;;
69799;SDS011;67217;51.008;4.644;2023-03-01T07:32:13;24.12;;;13.98;;
69799;SDS011;67217;51.008;4.644;2023-03-01T07:34:41;27.00;;;14.58;;
69799;SDS011;67217;51.008;4.644;2023-03-01T07:37:08;27.60;;;14.80;;
69799;SDS011;67217;51.008;4.644;2023-03-01T07:39:36;25.32;;;14.73;;
69799;SDS011;67217;51.008;4.644;2023-03-01T07:42:04;25.37;;;14.43;;
69799;SDS011;67217;51.008;4.644;2023-03-01T07:44:32;25.27;;;14.20;;
69799;SDS011;67217;51.008;4.644;2023-03-01T07:47:00;24.92;;;14.28;;
69799;SDS011;67217;51.008;4.644;2023-03-01T07:49:28;26.35;;;13.62;;
69799;SDS011;67217;51.008;4.644;2023-03-01T07:51:56;27.35;;;13.95;;
69799;SDS011;67217;51.008;4.644;2023-03-01T07:57:11;23.27;;;13.72;;
69799;SDS011;67217;51.008;4.644;2023-03-01T07:59:39;27.90;;;13.60;;
69799;SDS011;67217;51.008;4.644;2023-03-01T08:02:08;22.75;;;13.93;;
69799;SDS011;67217;51.008;4.644;2023-03-01T08:04:37;20.80;;;14.00;;
69799;SDS011;67217;51.008;4.644;2023-03-01T08:09:52;23.38;;;14.07;;
69799;SDS011;67217;51.008;4.644;2023-03-01T08:12:20;20.77;;;12.98;;
69799;SDS011;67217;51.008;4.644;2023-03-01T08:14:47;21.68;;;14.28;;
69799;SDS011;67217;51.008;4.644;2023-03-01T08:17:15;27.25;;;14.78;;
69799;SDS011;67217;51.008;4.644;2023-03-01T08:19:43;24.10;;;14.53;;
69799;SDS011;67217;51.008;4.644;2023-03-01T08:22:11;21.87;;;13.60;;
69799;SDS011;67217;51.008;4.644;2023-03-01T08:24:39;22.58;;;13.75;;
69799;SDS011;67217;51.008;4.644;2023-03-01T08:27:07;23.70;;;14.28;;
69799;SDS011;67217;51.008;4.644;2023-03-01T08:29:35;26.73;;;13.62;;
69799;SDS011;67217;51.008;4.644;2023-03-01T08:32:03;23.65;;;14.05;;
69799;SDS011;67217;51.008;4.644;2023-03-01T08:34:31;20.75;;;13.88;;
69799;SDS011;67217;51.008;4.644;2023-03-01T08:37:01;18.67;;;11.45;;
69799;SDS011;67217;51.008;4.644;2023-03-01T08:39:28;25.72;;;13.55;;
69799;SDS011;67217;51.008;4.644;2023-03-01T08:41:56;21.35;;;14.47;;
69799;SDS011;67217;51.008;4.644;2023-03-01T08:44:24;20.70;;;13.25;;
69799;SDS011;67217;51.008;4.644;2023-03-01T08:46:52;20.35;;;13.95;;
69799;SDS011;67217;51.008;4.644;2023-03-01T08:49:21;20.05;;;13.53;;
69799;SDS011;67217;51.008;4.644;2023-03-01T08:51:50;22.52;;;14.18;;
69799;SDS011;67217;51.008;4.644;2023-03-01T08:54:19;22.02;;;13.65;;
69799;SDS011;67217;51.008;4.644;2023-03-01T08:56:48;23.83;;;13.95;;
69799;SDS011;67217;51.008;4.644;2023-03-01T08:59:16;21.42;;;14.07;;
69799;SDS011;67217;51.008;4.644;2023-03-01T09:01:45;35.65;;;14.07;;
69799;SDS011;67217;51.008;4.644;2023-03-01T09:04:14;19.42;;;13.68;;
69799;SDS011;67217;51.008;4.644;2023-03-01T09:06:42;22.87;;;14.00;;
69799;SDS011;67217;51.008;4.644;2023-03-01T09:09:30;20.25;;;13.75;;
69799;SDS011;67217;51.008;4.644;2023-03-01T09:11:57;20.48;;;13.65;;
69799;SDS011;67217;51.008;4.644;2023-03-01T09:14:25;21.20;;;13.05;;
69799;SDS011;67217;51.008;4.644;2023-03-01T09:16:55;19.30;;;13.45;;
69799;SDS011;67217;51.008;4.644;2023-03-01T09:19:23;22.32;;;14.00;;
69799;SDS011;67217;51.008;4.644;2023-03-01T09:21:51;22.80;;;13.75;;
69799;SDS011;67217;51.008;4.644;2023-03-01T09:24:20;20.23;;;13.30;;
69799;SDS011;67217;51.008;4.644;2023-03-01T09:26:49;20.45;;;13.60;;
69799;SDS011;67217;51.008;4.644;2023-03-01T09:29:18;20.80;;;13.70;;
69799;SDS011;67217;51.008;4.644;2023-03-01T09:31:46;22.82;;;13.45;;
69799;SDS011;67217;51.008;4.644;2023-03-01T09:34:14;25.15;;;14.03;;
69799;SDS011;67217;51.008;4.644;2023-03-01T09:36:43;20.57;;;13.35;;
69799;SDS011;67217;51.008;4.644;2023-03-01T09:39:12;18.82;;;13.48;;
69799;SDS011;67217;51.008;4.644;2023-03-01T09:47:20;18.37;;;12.43;;
69799;SDS011;67217;51.008;4.644;2023-03-01T09:49:57;20.30;;;12.30;;
69799;SDS011;67217;51.008;4.644;2023-03-01T09:52:23;18.15;;;12.53;;
69799;SDS011;67217;51.008;4.644;2023-03-01T09:54:53;18.50;;;12.35;;
69799;SDS011;67217;51.008;4.644;2023-03-01T09:57:40;18.10;;;12.20;;
69799;SDS011;67217;51.008;4.644;2023-03-01T10:00:33;24.75;;;12.45;;
69799;SDS011;67217;51.008;4.644;2023-03-01T10:03:16;18.12;;;11.90;;
69799;SDS011;67217;51.008;4.644;2023-03-01T10:08:38;19.70;;;12.73;;
69799;SDS011;67217;51.008;4.644;2023-03-01T10:11:22;16.93;;;12.03;;
69799;SDS011;67217;51.008;4.644;2023-03-01T10:16:56;17.40;;;11.83;;
69799;SDS011;67217;51.008;4.644;2023-03-01T10:22:29;19.07;;;11.53;;
69799;SDS011;67217;51.008;4.644;2023-03-01T10:24:59;19.95;;;12.47;;
69799;SDS011;67217;51.008;4.644;2023-03-01T10:27:38;18.27;;;11.63;;
69799;SDS011;67217;51.008;4.644;2023-03-01T10:35:22;18.32;;;11.93;;
69799;SDS011;67217;51.008;4.644;2023-03-01T10:38:16;20.30;;;12.03;;
69799;SDS011;67217;51.008;4.644;2023-03-01T10:41:05;18.50;;;12.23;;
69799;SDS011;67217;51.008;4.644;2023-03-01T10:51:43;17.52;;;11.68;;
69799;SDS011;67217;51.008;4.644;2023-03-01T10:54:22;16.12;;;11.20;;
69799;SDS011;67217;51.008;4.644;2023-03-01T10:56:50;17.82;;;12.07;;
69799;SDS011;67217;51.008;4.644;2023-03-01T11:05:01;15.50;;;10.30;;
69799;SDS011;67217;51.008;4.644;2023-03-01T11:07:31;16.70;;;11.25;;
69799;SDS011;67217;51.008;4.644;2023-03-01T11:10:08;17.65;;;10.50;;
69799;SDS011;67217;51.008;4.644;2023-03-01T11:12:51;14.78;;;10.08;;
69799;SDS011;67217;51.008;4.644;2023-03-01T11:15:26;14.35;;;9.83;;
69799;SDS011;67217;51.008;4.644;2023-03-01T11:17:54;15.10;;;9.15;;
69799;SDS011;67217;51.008;4.644;2023-03-01T11:20:33;13.48;;;9.35;;
69799;SDS011;67217;51.008;4.644;2023-03-01T11:23:05;13.45;;;9.83;;
69799;SDS011;67217;51.008;4.644;2023-03-01T11:25:38;12.53;;;9.03;;
69799;SDS011;67217;51.008;4.644;2023-03-01T11:28:12;15.40;;;8.95;;
69799;SDS011;67217;51.008;4.644;2023-03-01T11:30:47;13.50;;;9.18;;
69799;SDS011;67217;51.008;4.644;2023-03-01T11:36:08;12.33;;;9.18;;
69799;SDS011;67217;51.008;4.644;2023-03-01T11:38:55;14.73;;;9.25;;
69799;SDS011;67217;51.008;4.644;2023-03-01T11:41:26;13.30;;;8.78;;
69799;SDS011;67217;51.008;4.644;2023-03-01T11:44:03;13.10;;;8.55;;
69799;SDS011;67217;51.008;4.644;2023-03-01T11:51:48;15.00;;;8.48;;
69799;SDS011;67217;51.008;4.644;2023-03-01T11:54:32;10.90;;;8.08;;
69799;SDS011;67217;51.008;4.644;2023-03-01T12:05:33;12.85;;;8.50;;
69799;SDS011;67217;51.008;4.644;2023-03-01T12:10:52;12.05;;;8.60;;
69799;SDS011;67217;51.008;4.644;2023-03-01T12:13:45;10.10;;;8.30;;
69799;SDS011;67217;51.008;4.644;2023-03-01T12:16:27;13.60;;;9.15;;
69799;SDS011;67217;51.008;4.644;2023-03-01T12:19:08;11.88;;;8.68;;
69799;SDS011;67217;51.008;4.644;2023-03-01T12:27:07;11.08;;;8.13;;
69799;SDS011;67217;51.008;4.644;2023-03-01T12:29:41;13.43;;;8.95;;
69799;SDS011;67217;51.008;4.644;2023-03-01T12:32:12;13.05;;;8.63;;
69799;SDS011;67217;51.008;4.644;2023-03-01T12:48:15;13.08;;;9.13;;
69799;SDS011;67217;51.008;4.644;2023-03-01T12:50:59;10.48;;;8.48;;
69799;SDS011;67217;51.008;4.644;2023-03-01T12:53:28;12.10;;;8.85;;
69799;SDS011;67217;51.008;4.644;2023-03-01T12:56:00;12.43;;;8.63;;
69799;SDS011;67217;51.008;4.644;2023-03-01T12:58:35;11.75;;;8.50;;
69799;SDS011;67217;51.008;4.644;2023-03-01T13:01:31;13.48;;;9.08;;
69799;SDS011;67217;51.008;4.644;2023-03-01T13:07:11;13.13;;;8.53;;
69799;SDS011;67217;51.008;4.644;2023-03-01T13:10:03;14.05;;;8.83;;
69799;SDS011;67217;51.008;4.644;2023-03-01T13:20:46;14.53;;;8.80;;
69799;SDS011;67217;51.008;4.644;2023-03-01T13:26:02;11.03;;;7.95;;
69799;SDS011;67217;51.008;4.644;2023-03-01T13:31:02;12.30;;;9.08;;
69799;SDS011;67217;51.008;4.644;2023-03-01T13:36:05;10.88;;;8.40;;
69799;SDS011;67217;51.008;4.644;2023-03-01T13:38:44;11.15;;;8.95;;
69799;SDS011;67217;51.008;4.644;2023-03-01T13:44:12;13.75;;;9.28;;
69799;SDS011;67217;51.008;4.644;2023-03-01T13:55:34;15.40;;;9.53;;
69799;SDS011;67217;51.008;4.644;2023-03-01T13:57:57;12.43;;;9.13;;
69799;SDS011;67217;51.008;4.644;2023-03-01T14:03:03;10.78;;;8.80;;
69799;SDS011;67217;51.008;4.644;2023-03-01T14:05:33;11.45;;;8.60;;
69799;SDS011;67217;51.008;4.644;2023-03-01T14:08:05;12.10;;;9.18;;
69799;SDS011;67217;51.008;4.644;2023-03-01T14:16:17;13.38;;;8.28;;
69799;SDS011;67217;51.008;4.644;2023-03-01T14:19:04;13.28;;;9.03;;
69799;SDS011;67217;51.008;4.644;2023-03-01T14:21:34;12.68;;;9.68;;
69799;SDS011;67217;51.008;4.644;2023-03-01T14:24:02;13.03;;;9.43;;
69799;SDS011;67217;51.008;4.644;2023-03-01T14:26:30;12.85;;;8.60;;
69799;SDS011;67217;51.008;4.644;2023-03-01T14:29:01;12.05;;;9.23;;
69799;SDS011;67217;51.008;4.644;2023-03-01T14:31:33;11.30;;;9.23;;
69799;SDS011;67217;51.008;4.644;2023-03-01T14:34:05;11.43;;;9.25;;
69799;SDS011;67217;51.008;4.644;2023-03-01T14:36:34;12.58;;;9.83;;
69799;SDS011;67217;51.008;4.644;2023-03-01T14:39:15;14.10;;;9.15;;
69799;SDS011;67217;51.008;4.644;2023-03-01T14:41:34;13.85;;;9.65;;
69799;SDS011;67217;51.008;4.644;2023-03-01T14:44:04;12.93;;;9.55;;
69799;SDS011;67217;51.008;4.644;2023-03-01T14:46:35;15.18;;;9.50;;
69799;SDS011;67217;51.008;4.644;2023-03-01T14:49:10;12.90;;;9.30;;
69799;SDS011;67217;51.008;4.644;2023-03-01T14:54:46;15.38;;;9.50;;
69799;SDS011;67217;51.008;4.644;2023-03-01T14:57:25;13.90;;;9.45;;
69799;SDS011;67217;51.008;4.644;2023-03-01T15:02:24;14.75;;;9.18;;
69799;SDS011;67217;51.008;4.644;2023-03-01T15:04:58;15.03;;;9.53;;
69799;SDS011;67217;51.008;4.644;2023-03-01T15:07:31;13.80;;;9.58;;
69799;SDS011;67217;51.008;4.644;2023-03-01T15:10:02;13.75;;;9.03;;
69799;SDS011;67217;51.008;4.644;2023-03-01T15:15:06;13.58;;;9.98;;
69799;SDS011;67217;51.008;4.644;2023-03-01T15:17:52;18.27;;;9.75;;
69799;SDS011;67217;51.008;4.644;2023-03-01T15:20:40;13.62;;;10.15;;
69799;SDS011;67217;51.008;4.644;2023-03-01T15:23:47;12.00;;;9.48;;
69799;SDS011;67217;51.008;4.644;2023-03-01T15:25:46;12.68;;;9.60;;
69799;SDS011;67217;51.008;4.644;2023-03-01T15:28:18;15.88;;;9.75;;
69799;SDS011;67217;51.008;4.644;2023-03-01T15:30:51;13.70;;;9.68;;
69799;SDS011;67217;51.008;4.644;2023-03-01T15:33:32;14.35;;;9.88;;
69799;SDS011;67217;51.008;4.644;2023-03-01T15:39:01;14.43;;;9.95;;
69799;SDS011;67217;51.008;4.644;2023-03-01T15:41:37;14.87;;;9.33;;
69799;SDS011;67217;51.008;4.644;2023-03-01T15:44:18;14.18;;;9.23;;
69799;SDS011;67217;51.008;4.644;2023-03-01T15:46:53;16.60;;;8.98;;
69799;SDS011;67217;51.008;4.644;2023-03-01T15:49:36;15.53;;;8.70;;
69799;SDS011;67217;51.008;4.644;2023-03-01T15:52:04;10.90;;;8.15;;
69799;SDS011;67217;51.008;4.644;2023-03-01T15:54:34;12.85;;;8.55;;
69799;SDS011;67217;51.008;4.644;2023-03-01T15:57:03;15.05;;;8.98;;
69799;SDS011;67217;51.008;4.644;2023-03-01T15:59:31;12.60;;;8.98;;
69799;SDS011;67217;51.008;4.644;2023-03-01T16:01:59;12.88;;;9.03;;
69799;SDS011;67217;51.008;4.644;2023-03-01T16:04:27;14.18;;;9.60;;
69799;SDS011;67217;51.008;4.644;2023-03-01T16:06:54;11.75;;;8.98;;
69799;SDS011;67217;51.008;4.644;2023-03-01T16:09:23;15.20;;;9.43;;
69799;SDS011;67217;51.008;4.644;2023-03-01T16:11:52;16.07;;;8.75;;
69799;SDS011;67217;51.008;4.644;2023-03-01T16:14:20;17.48;;;10.48;;
69799;SDS011;67217;51.008;4.644;2023-03-01T16:16:48;11.33;;;8.38;;
69799;SDS011;67217;51.008;4.644;2023-03-01T16:19:16;13.75;;;8.48;;
69799;SDS011;67217;51.008;4.644;2023-03-01T16:21:44;15.63;;;8.73;;
69799;SDS011;67217;51.008;4.644;2023-03-01T16:24:13;15.13;;;8.50;;
69799;SDS011;67217;51.008;4.644;2023-03-01T16:26:42;12.85;;;8.23;;
69799;SDS011;67217;51.008;4.644;2023-03-01T16:29:10;11.38;;;8.13;;
69799;SDS011;67217;51.008;4.644;2023-03-01T16:31:38;14.87;;;8.50;;
69799;SDS011;67217;51.008;4.644;2023-03-01T16:34:06;11.65;;;8.13;;
69799;SDS011;67217;51.008;4.644;2023-03-01T16:36:34;15.00;;;8.28;;
69799;SDS011;67217;51.008;4.644;2023-03-01T16:39:02;11.48;;;8.05;;
69799;SDS011;67217;51.008;4.644;2023-03-01T16:41:30;15.10;;;8.43;;
69799;SDS011;67217;51.008;4.644;2023-03-01T16:43:58;15.90;;;8.73;;
69799;SDS011;67217;51.008;4.644;2023-03-01T16:46:28;14.13;;;8.95;;
69799;SDS011;67217;51.008;4.644;2023-03-01T16:48:55;13.10;;;8.68;;
69799;SDS011;67217;51.008;4.644;2023-03-01T16:51:23;13.25;;;8.68;;
69799;SDS011;67217;51.008;4.644;2023-03-01T16:53:51;13.70;;;8.68;;
69799;SDS011;67217;51.008;4.644;2023-03-01T16:56:19;13.85;;;8.25;;
69799;SDS011;67217;51.008;4.644;2023-03-01T16:58:47;14.23;;;9.10;;
69799;SDS011;67217;51.008;4.644;2023-03-01T17:01:16;14.00;;;9.48;;
69799;SDS011;67217;51.008;4.644;2023-03-01T17:03:45;17.23;;;9.10;;
69799;SDS011;67217;51.008;4.644;2023-03-01T17:06:16;15.03;;;8.80;;
69799;SDS011;67217;51.008;4.644;2023-03-01T17:08:46;13.15;;;8.95;;
69799;SDS011;67217;51.008;4.644;2023-03-01T17:11:18;15.70;;;9.00;;
69799;SDS011;67217;51.008;4.644;2023-03-01T17:13:46;18.87;;;9.90;;